Bydgoszcz, Poland
Current Conditions -  °F | °C
As of 4:30 PM on Monday 26 Jan 2015 (Local Time) from EPBY Reporting Station
Broken Clouds Broken Clouds  
Wind Chill: 28°   Ceiling: 2800
Heat Index: 34°   Visibility: 6mi
Dew Point: 25°   Wind: 7mph
Humidity: 70%   Direction: 210°SSW
Pressure: 30.09"   Gusts: NA
Location:  53.12°N, 17.99°E
Report Text: EPBY 261430Z 21006KT 180V250 9999 BKN028 01/M04 Q1019
Loading
Personal Weather Stations






























Interactive Weather Map New forecast layout! Learn more

10-Day Weather Forecast

Advertisements
Track Severe Weather on mobile